Time;durP1;ratioP1;P1;durP2;ratioP2;P2;SDS_P1;SDS_P2;PMS_P1;PMS_P2;Temp;Humidity;BMP_temperature;BMP_pressure;BME280_temperature;BME280_humidity;BME280_pressure;Samples;Min_cycle;Max_cycle;Signal;HPM_P1;HPM_P2
2022/06/05 00:00:05;;;;;;;10.52;9.43;;;20.20;84.90;;;;;;5137237;27;20045;-55
2022/06/05 00:02:58;;;;;;;11.07;9.88;;;20.00;84.60;;;;;;5136744;27;20057;-56
2022/06/05 00:06:05;;;;;;;11.00;9.90;;;20.00;84.70;;;;;;5136350;27;20038;-56
2022/06/05 00:09:13;;;;;;;11.18;8.65;;;20.00;84.80;;;;;;5136518;27;20030;-56
2022/06/05 00:12:07;;;;;;;11.07;9.57;;;20.00;84.00;;;;;;5136687;27;20505;-54
2022/06/05 00:14:52;;;;;;;10.70;9.60;;;20.10;83.10;;;;;;5137220;27;20683;-53
2022/06/05 00:17:36;;;;;;;10.40;9.40;;;20.00;83.00;;;;;;5136948;27;20038;-57
2022/06/05 00:20:20;;;;;;;10.68;9.73;;;19.90;83.10;;;;;;5136715;27;20026;-55
2022/06/05 00:23:04;;;;;;;9.77;8.65;;;19.90;83.70;;;;;;5136212;27;20042;-56
2022/06/05 00:25:57;;;;;;;;;;;19.80;83.50;;;;;;5135020;27;20034;-56
2022/06/05 00:28:59;;;;;;;9.73;8.43;;;19.70;83.80;;;;;;5135973;27;19964;-53
2022/06/05 00:32:31;;;;;;;10.10;9.20;;;19.70;83.80;;;;;;5136523;27;20088;-56
2022/06/05 00:35:18;;;;;;;9.50;8.60;;;19.60;84.20;;;;;;5032990;28;20048;-57
2022/06/05 00:38:12;;;;;;;9.88;8.88;;;19.50;84.40;;;;;;5033803;28;20068;-57
2022/06/05 00:41:36;;;;;;;10.38;8.40;;;19.40;84.70;;;;;;5128227;27;20081;-57
2022/06/05 00:44:33;;;;;;;11.65;9.98;;;19.30;85.00;;;;;;5119042;27;20140;-56
2022/06/05 00:47:24;;;;;;;9.40;8.50;;;19.30;84.80;;;;;;5134820;27;20080;-51
2022/06/05 00:50:22;;;;;;;9.48;8.43;;;19.30;85.10;;;;;;5135006;27;20046;-53
2022/06/05 00:53:08;;;;;;;13.50;11.75;;;19.20;84.80;;;;;;5120922;27;20512;-53
2022/06/05 00:55:53;;;;;;;11.02;9.93;;;19.20;84.90;;;;;;5134856;27;20431;-57
2022/06/05 00:58:38;;;;;;;11.07;9.88;;;19.10;85.40;;;;;;5136035;27;20540;-55
2022/06/05 01:01:22;;;;;;;13.88;11.35;;;19.00;85.50;;;;;;5135860;27;20418;-57
2022/06/05 01:04:07;;;;;;;10.73;9.07;;;18.90;85.70;;;;;;5135344;27;20440;-53
2022/06/05 01:06:52;;;;;;;10.88;9.55;;;18.90;85.70;;;;;;5118972;27;20088;-55
2022/06/05 01:09:38;;;;;;;9.60;8.70;;;18.90;86.00;;;;;;5134910;27;20570;-57
2022/06/05 01:12:40;;;;;;;9.05;8.05;;;18.90;86.00;;;;;;5135449;27;20742;-56
2022/06/05 01:15:33;;;;;;;9.55;8.65;;;18.90;85.90;;;;;;5134580;27;20509;-54
2022/06/05 01:18:41;;;;;;;9.05;8.18;;;18.90;85.90;;;;;;5134992;27;20493;-55
2022/06/05 01:21:32;;;;;;;9.75;8.23;;;18.80;85.90;;;;;;5135232;27;20385;-56
2022/06/05 01:25:10;;;;;;;9.77;8.57;;;18.70;86.20;;;;;;5135367;27;20524;-54
2022/06/05 01:27:57;;;;;;;9.00;7.68;;;18.70;86.10;;;;;;5030955;28;20713;-55
2022/06/05 01:30:50;;;;;;;9.80;8.80;;;18.50;86.60;;;;;;5031577;28;20056;-54
2022/06/05 01:33:41;;;;;;;9.68;8.20;;;18.50;86.80;;;;;;5127568;27;20050;-53
2022/06/05 01:36:35;;;;;;;9.52;8.35;;;18.40;86.60;;;;;;5134584;27;20048;-54
2022/06/05 01:39:42;;;;;;;9.47;8.30;;;18.30;87.40;;;;;;5134676;27;20107;-55
2022/06/05 01:42:48;;;;;;;10.63;8.23;;;18.20;87.60;;;;;;5119568;27;20044;-57
2022/06/05 01:45:46;;;;;;;8.70;7.90;;;18.10;87.90;;;;;;5098219;28;20050;-57
2022/06/05 01:48:56;;;;;;;8.73;7.93;;;18.00;88.00;;;;;;5114232;28;20035;-55
2022/06/05 01:51:59;;;;;;;8.60;7.85;;;18.00;88.40;;;;;;5113408;28;20106;-57
2022/06/05 01:55:01;;;;;;;8.80;7.88;;;17.90;88.70;;;;;;5114165;28;20018;-56
2022/06/05 01:57:47;;;;;;;9.00;8.07;;;17.90;88.60;;;;;;5113191;28;20029;-57
2022/06/05 02:00:32;;;;;;;8.70;7.90;;;18.00;88.70;;;;;;5098271;28;20158;-53
2022/06/05 02:03:27;;;;;;;8.63;7.82;;;18.00;88.60;;;;;;5113719;28;20096;-54
2022/06/05 02:06:15;;;;;;;8.18;7.47;;;18.00;88.60;;;;;;5113673;28;20081;-57
2022/06/05 02:09:11;;;;;;;11.15;7.70;;;18.10;88.10;;;;;;5114569;28;20111;-53
2022/06/05 02:11:55;;;;;;;9.93;7.85;;;18.10;88.00;;;;;;5113812;28;20062;-57
2022/06/05 02:14:42;;;;;;;8.10;7.05;;;18.10;87.90;;;;;;5114653;28;20111;-57
2022/06/05 02:17:26;;;;;;;8.50;7.70;;;18.10;87.90;;;;;;5113631;28;20031;-55
2022/06/05 02:20:11;;;;;;;8.90;7.72;;;18.10;87.90;;;;;;5112809;28;20567;-56
2022/06/05 02:22:56;;;;;;;8.82;7.68;;;18.10;87.70;;;;;;5113228;28;20067;-57
2022/06/05 02:25:41;;;;;;;9.23;8.18;;;18.10;87.70;;;;;;5113155;28;20609;-55
2022/06/05 02:28:25;;;;;;;;;;;18.00;87.70;;;;;;5113342;28;20030;-56
2022/06/05 02:31:40;;;;;;;8.90;7.93;;;18.00;88.10;;;;;;5113172;28;19939;-56
2022/06/05 02:34:42;;;;;;;13.50;7.93;;;17.90;88.20;;;;;;5113098;28;20026;-56
2022/06/05 02:37:42;;;;;;;8.15;7.40;;;17.90;88.30;;;;;;5112196;28;20509;-56
2022/06/05 02:40:44;;;;;;;8.52;7.63;;;17.90;88.00;;;;;;5112963;28;20066;-54
2022/06/05 02:43:43;;;;;;;9.98;8.98;;;17.90;89.00;;;;;;5113741;27;20072;-55
2022/06/05 02:46:35;;;;;;;14.45;10.45;;;17.80;88.70;;;;;;5132924;27;20171;-57
2022/06/05 02:49:30;;;;;;;10.98;9.60;;;17.70;88.90;;;;;;5132933;27;20508;-57
2022/06/05 02:52:15;;;;;;;13.75;8.98;;;17.60;89.20;;;;;;5133221;27;20066;-56
2022/06/05 02:55:05;;;;;;;9.30;8.48;;;17.60;89.20;;;;;;5133686;27;20076;-56
2022/06/05 02:57:49;;;;;;;10.60;9.23;;;17.60;89.50;;;;;;5133079;28;20525;-56
2022/06/05 03:00:36;;;;;;;12.25;10.02;;;17.50;89.60;;;;;;5132820;28;20096;-56
2022/06/05 03:03:29;;;;;;;9.98;8.98;;;17.50;89.70;;;;;;5133667;28;20504;-54
2022/06/05 03:06:13;;;;;;;10.05;9.13;;;17.50;90.00;;;;;;5132713;28;20041;-56
2022/06/05 03:08:57;;;;;;;10.23;8.80;;;17.40;90.00;;;;;;5132616;28;20035;-54
2022/06/05 03:11:42;;;;;;;10.93;9.00;;;17.30;90.00;;;;;;5117704;28;20077;-53
2022/06/05 03:14:26;;;;;;;11.27;9.25;;;17.30;90.10;;;;;;5133132;28;20497;-54
2022/06/05 03:17:10;;;;;;;9.65;8.65;;;17.30;90.20;;;;;;5132383;28;20058;-57
2022/06/05 03:19:56;;;;;;;10.85;9.07;;;17.30;90.20;;;;;;5117889;28;20037;-57
2022/06/05 03:22:42;;;;;;;9.57;8.35;;;17.30;90.20;;;;;;5133185;28;20511;-57
2022/06/05 03:25:26;;;;;;;9.18;8.27;;;17.30;90.30;;;;;;5117019;28;20041;-56
2022/06/05 03:28:11;;;;;;;10.48;8.60;;;17.20;90.20;;;;;;5117158;28;20038;-57
2022/06/05 03:30:55;;;;;;;8.75;7.85;;;17.30;90.30;;;;;;5132697;28;20062;-57
2022/06/05 03:33:39;;;;;;;9.45;8.45;;;17.30;90.20;;;;;;5133230;28;20034;-57
2022/06/05 03:36:23;;;;;;;9.80;8.68;;;17.40;90.20;;;;;;5132226;28;20033;-55
2022/06/05 03:39:07;;;;;;;9.37;8.37;;;17.40;90.00;;;;;;5133368;28;20402;-55
2022/06/05 03:41:51;;;;;;;10.40;8.35;;;17.50;90.00;;;;;;5124072;28;20311;-56
2022/06/05 03:44:41;;;;;;;10.30;9.25;;;17.50;90.00;;;;;;5107763;28;20086;-54
2022/06/05 03:47:25;;;;;;;10.52;8.13;;;17.50;90.00;;;;;;5112622;28;20031;-56
2022/06/05 03:50:11;;;;;;;10.48;9.32;;;17.60;90.00;;;;;;5112440;28;20043;-55
2022/06/05 03:52:56;;;;;;;10.32;8.20;;;17.60;89.60;;;;;;5112626;28;20035;-54
2022/06/05 03:55:40;;;;;;;12.60;8.43;;;17.60;89.30;;;;;;5112355;28;20142;-56
2022/06/05 03:58:24;;;;;;;9.43;8.43;;;17.70;89.70;;;;;;5113174;28;20034;-56
2022/06/05 04:01:09;;;;;;;10.00;8.55;;;17.70;89.80;;;;;;5116124;28;20039;-57
2022/06/05 04:03:54;;;;;;;11.05;8.77;;;17.60;89.90;;;;;;5116240;28;20066;-56
2022/06/05 04:06:38;;;;;;;10.10;9.07;;;17.60;90.20;;;;;;5115973;28;20452;-55
2022/06/05 04:09:23;;;;;;;10.00;8.93;;;17.50;90.00;;;;;;5115839;28;20082;-57
2022/06/05 04:12:07;;;;;;;;;;;17.40;90.10;;;;;;5116492;28;20042;-55
2022/06/05 04:14:51;;;;;;;10.07;9.02;;;17.40;90.50;;;;;;5115722;28;19915;-55
2022/06/05 04:17:36;;;;;;;9.95;8.60;;;17.30;90.20;;;;;;5115008;28;20525;-52
2022/06/05 04:20:20;;;;;;;9.10;8.18;;;17.30;90.40;;;;;;5115118;28;20085;-55
2022/06/05 04:23:04;;;;;;;9.93;8.85;;;17.40;90.40;;;;;;5115521;28;20509;-54
2022/06/05 04:25:48;;;;;;;10.77;8.95;;;17.30;90.30;;;;;;5115134;28;20086;-55
2022/06/05 04:28:33;;;;;;;9.77;8.88;;;17.30;90.40;;;;;;5115892;28;20085;-53
2022/06/05 04:31:20;;;;;;;9.48;8.57;;;17.30;90.40;;;;;;5114502;28;20042;-54
2022/06/05 04:34:10;;;;;;;11.70;9.57;;;17.40;90.30;;;;;;5115138;28;20034;-56
2022/06/05 04:36:55;;;;;;;10.95;9.23;;;17.40;90.30;;;;;;5114961;28;20069;-55
2022/06/05 04:39:39;;;;;;;9.88;8.82;;;17.40;90.40;;;;;;5114830;28;20035;-56
2022/06/05 04:42:23;;;;;;;11.90;9.45;;;17.50;90.40;;;;;;5115778;28;20034;-54
2022/06/05 04:45:08;;;;;;;9.98;9.02;;;17.50;90.40;;;;;;5134783;27;20343;-54
2022/06/05 04:47:52;;;;;;;10.13;9.23;;;17.60;90.40;;;;;;5119635;27;20077;-57
2022/06/05 04:50:37;;;;;;;9.27;8.45;;;17.70;90.30;;;;;;5119465;27;20038;-56
2022/06/05 04:53:22;;;;;;;9.57;8.57;;;17.70;90.20;;;;;;5135533;27;20042;-55
2022/06/05 04:56:10;;;;;;;11.27;8.88;;;17.70;90.20;;;;;;5135169;27;20441;-56
2022/06/05 04:58:55;;;;;;;11.55;8.88;;;17.80;90.10;;;;;;5120493;27;20038;-57
2022/06/05 05:01:40;;;;;;;9.77;8.88;;;17.80;90.30;;;;;;5135369;27;20037;-53
2022/06/05 05:04:24;;;;;;;9.95;8.75;;;17.80;90.30;;;;;;5135070;27;20038;-57
2022/06/05 05:07:09;;;;;;;10.35;8.98;;;17.90;90.20;;;;;;5134966;27;20033;-58
2022/06/05 05:09:53;;;;;;;11.23;9.32;;;18.00;90.20;;;;;;5135028;27;20045;-54
2022/06/05 05:12:37;;;;;;;9.95;8.90;;;18.00;90.30;;;;;;5135249;27;20084;-57
2022/06/05 05:15:21;;;;;;;10.85;9.13;;;18.10;90.20;;;;;;5135188;27;20095;-56
2022/06/05 05:18:05;;;;;;;9.23;8.43;;;18.30;90.10;;;;;;5134584;27;20397;-55
2022/06/05 05:20:49;;;;;;;10.50;9.50;;;18.30;90.10;;;;;;5135127;27;20084;-54
2022/06/05 05:23:34;;;;;;;10.40;8.57;;;18.40;90.00;;;;;;5135143;27;20038;-55
2022/06/05 05:26:27;;;;;;;10.07;9.07;;;18.40;90.20;;;;;;5134568;27;20089;-55
2022/06/05 05:29:12;;;;;;;9.73;8.77;;;18.40;90.10;;;;;;5135585;27;20580;-55
2022/06/05 05:31:56;;;;;;;10.88;9.77;;;18.50;90.10;;;;;;5134337;27;20053;-54
2022/06/05 05:34:41;;;;;;;10.55;9.38;;;18.50;90.00;;;;;;5134650;27;20089;-55
2022/06/05 05:37:25;;;;;;;9.88;8.88;;;18.50;89.90;;;;;;5134216;27;20038;-56
2022/06/05 05:43:13;;;;;;;9.43;8.52;;;18.70;90.00;;;;;;5118198;27;20378;-55
2022/06/05 05:45:57;;;;;;;10.48;9.38;;;18.80;89.70;;;;;;5133706;27;20062;-54
2022/06/05 05:48:42;;;;;;;12.23;11.02;;;18.90;89.60;;;;;;5135281;27;20089;-56
2022/06/05 05:51:26;;;;;;;11.75;10.60;;;18.90;89.70;;;;;;5134918;27;20041;-55
2022/06/05 05:54:11;;;;;;;;;;;18.90;90.00;;;;;;5135659;27;20030;-58
2022/06/05 05:56:55;;;;;;;11.45;9.85;;;19.10;89.70;;;;;;5134015;27;19917;-55
2022/06/05 05:59:40;;;;;;;11.95;10.80;;;19.10;89.80;;;;;;5134361;27;20161;-58
2022/06/05 06:02:25;;;;;;;;;;;19.10;89.80;;;;;;5134977;27;20034;-53
2022/06/05 06:05:14;;;;;;;13.50;11.23;;;19.10;89.60;;;;;;5118820;27;19990;-54
2022/06/05 06:07:59;;;;;;;11.63;10.43;;;19.10;90.00;;;;;;5134183;27;20105;-54
2022/06/05 06:10:43;;;;;;;12.95;11.15;;;19.10;90.10;;;;;;5134565;27;20091;-55
2022/06/05 06:13:29;;;;;;;;;;;19.20;90.10;;;;;;5134134;27;20101;-56
2022/06/05 06:16:13;;;;;;;10.43;9.27;;;19.30;90.00;;;;;;5133270;27;19919;-55
2022/06/05 06:18:58;;;;;;;10.18;9.18;;;19.40;90.00;;;;;;5134082;27;20520;-55
2022/06/05 06:21:42;;;;;;;12.05;10.05;;;19.50;89.70;;;;;;5133969;27;20072;-53
2022/06/05 06:24:27;;;;;;;10.10;9.05;;;19.60;89.80;;;;;;5133230;27;20039;-57
2022/06/05 06:27:11;;;;;;;10.32;9.38;;;19.70;89.70;;;;;;5132738;27;20166;-54
2022/06/05 06:29:55;;;;;;;11.27;10.23;;;19.60;89.70;;;;;;5117712;27;20062;-55
2022/06/05 06:32:40;;;;;;;10.23;9.23;;;19.80;89.80;;;;;;5133543;27;20457;-54
2022/06/05 06:35:24;;;;;;;11.32;10.23;;;19.80;90.00;;;;;;5132478;27;20452;-53
2022/06/05 06:38:08;;;;;;;10.70;9.68;;;19.90;89.90;;;;;;5133524;27;20116;-54
2022/06/05 06:40:59;;;;;;;13.43;11.95;;;20.00;89.70;;;;;;5117308;27;20042;-57
2022/06/05 06:43:45;;;;;;;12.13;10.55;;;20.10;90.00;;;;;;5121460;27;20026;-56
2022/06/05 06:46:30;;;;;;;12.25;10.70;;;20.10;89.80;;;;;;5132812;27;20053;-55
2022/06/05 06:49:15;;;;;;;11.82;10.63;;;20.30;89.80;;;;;;5133265;27;20084;-58
2022/06/05 06:51:59;;;;;;;11.10;10.00;;;20.30;89.70;;;;;;5133663;27;20509;-58
2022/06/05 06:54:43;;;;;;;12.07;9.90;;;20.30;90.00;;;;;;5117815;28;20374;-56
2022/06/05 06:57:28;;;;;;;;;;;20.40;89.90;;;;;;5117282;28;20114;-55
2022/06/05 07:00:17;;;;;;;12.40;11.00;;;20.40;89.60;;;;;;5133054;28;19977;-57
2022/06/05 07:03:01;;;;;;;12.02;10.75;;;20.50;89.80;;;;;;5133722;28;20030;-54
2022/06/05 07:05:46;;;;;;;;;;;20.50;90.10;;;;;;5132927;28;20054;-55
2022/06/05 07:08:30;;;;;;;10.80;9.70;;;20.60;89.80;;;;;;5133477;28;19957;-60
2022/06/05 07:11:16;;;;;;;11.32;10.27;;;20.70;89.80;;;;;;5132860;28;20116;-56
2022/06/05 07:14:00;;;;;;;11.70;10.57;;;20.90;89.50;;;;;;5132890;28;20124;-57
2022/06/05 07:16:45;;;;;;;12.60;11.30;;;21.00;89.40;;;;;;5117145;28;20049;-52
2022/06/05 07:19:29;;;;;;;;;;;21.20;89.20;;;;;;5118417;28;20609;-57
2022/06/05 07:22:13;;;;;;;11.32;10.23;;;21.30;88.70;;;;;;5117881;28;20041;-53
2022/06/05 07:24:57;;;;;;;15.85;13.07;;;21.40;88.90;;;;;;5133693;28;20099;-56
2022/06/05 07:27:41;;;;;;;13.40;12.15;;;21.40;88.90;;;;;;5132938;28;20039;-55
2022/06/05 07:30:26;;;;;;;12.45;11.25;;;21.40;89.30;;;;;;5102940;28;20508;-56
2022/06/05 07:33:11;;;;;;;13.43;12.20;;;21.60;89.10;;;;;;5132940;28;20093;-57
2022/06/05 07:35:57;;;;;;;12.23;11.13;;;21.70;88.80;;;;;;5137296;27;20449;-59
2022/06/05 07:38:42;;;;;;;12.85;11.85;;;21.80;88.90;;;;;;5121821;27;20039;-56
2022/06/05 07:41:34;;;;;;;11.68;10.60;;;21.80;88.90;;;;;;5132507;27;20038;-57
2022/06/05 07:44:18;;;;;;;13.05;11.75;;;21.90;89.00;;;;;;5136914;27;20027;-56
2022/06/05 07:47:07;;;;;;;11.77;10.68;;;22.00;88.80;;;;;;5138622;27;20050;-56
2022/06/05 07:49:51;;;;;;;12.35;11.25;;;22.20;88.40;;;;;;5136297;27;20096;-54
2022/06/05 07:55:38;;;;;;;12.85;11.55;;;22.50;87.90;;;;;;5135525;27;20042;-55
2022/06/05 07:58:22;;;;;;;12.52;11.35;;;22.60;87.40;;;;;;5136623;27;20161;-54
2022/06/05 08:01:07;;;;;;;11.68;10.50;;;22.60;87.20;;;;;;5136747;27;20038;-52
2022/06/05 08:03:52;;;;;;;15.48;11.98;;;22.70;87.30;;;;;;5136908;27;20038;-55
2022/06/05 08:06:37;;;;;;;13.30;11.93;;;22.70;87.50;;;;;;5136252;27;20402;-57
2022/06/05 08:09:21;;;;;;;12.20;11.07;;;22.80;87.40;;;;;;5136596;27;20038;-55
2022/06/05 08:12:08;;;;;;;12.15;10.95;;;23.00;87.10;;;;;;5136231;27;20038;-56
2022/06/05 08:14:53;;;;;;;13.88;11.93;;;23.20;86.70;;;;;;5136475;27;20039;-57
2022/06/05 08:17:38;;;;;;;13.95;12.63;;;23.30;86.40;;;;;;5120545;27;20084;-57
2022/06/05 08:20:22;;;;;;;12.98;11.60;;;23.20;86.60;;;;;;5120430;27;20038;-57
2022/06/05 08:23:06;;;;;;;13.80;12.52;;;23.20;86.80;;;;;;5135895;27;20390;-57
2022/06/05 08:25:52;;;;;;;12.07;10.98;;;23.30;86.80;;;;;;5135569;27;20038;-57
2022/06/05 08:28:36;;;;;;;12.88;11.45;;;23.40;86.10;;;;;;5136123;27;20062;-56
2022/06/05 08:31:20;;;;;;;;;;;23.50;85.70;;;;;;5136001;27;20046;-57
2022/06/05 08:34:06;;;;;;;14.97;13.67;;;23.60;85.50;;;;;;5136260;27;20373;-58
2022/06/05 08:41:26;;;;;;;14.13;12.82;;;23.70;85.10;;;;;;5135039;27;20381;-57
2022/06/05 08:43:26;;;;;;;12.65;11.35;;;23.60;84.70;;;;;;5085312;27;20440;-56
2022/06/05 08:46:18;;;;;;;13.88;12.57;;;23.70;84.50;;;;;;5134638;27;20034;-54
2022/06/05 08:49:33;;;;;;;12.55;11.38;;;23.70;84.50;;;;;;5135154;27;20034;-53
2022/06/05 08:52:38;;;;;;;13.65;12.43;;;23.80;84.40;;;;;;5106354;27;20042;-58
2022/06/05 08:55:40;;;;;;;14.13;12.68;;;23.70;84.40;;;;;;5135290;27;20115;-56
2022/06/05 08:58:31;;;;;;;13.35;12.15;;;23.70;83.90;;;;;;5135649;27;20670;-56
2022/06/05 09:01:34;;;;;;;13.68;12.38;;;23.90;83.80;;;;;;5135480;27;20042;-57
2022/06/05 09:05:05;;;;;;;13.43;12.10;;;23.90;83.80;;;;;;5135518;27;20076;-53
2022/06/05 09:07:56;;;;;;;14.65;12.20;;;23.80;83.50;;;;;;5135288;27;20096;-54
2022/06/05 09:10:53;;;;;;;12.60;11.60;;;24.10;83.40;;;;;;5135761;27;20054;-55
2022/06/05 09:13:57;;;;;;;12.80;11.60;;;24.00;82.60;;;;;;5135953;27;20057;-54
2022/06/05 09:16:48;;;;;;;11.40;10.48;;;24.30;82.70;;;;;;5134786;27;20030;-58
2022/06/05 09:19:32;;;;;;;11.60;10.57;;;24.40;82.40;;;;;;5135388;27;20026;-59
2022/06/05 09:22:45;;;;;;;11.43;10.43;;;24.40;81.40;;;;;;5135532;27;20041;-56
2022/06/05 09:25:39;;;;;;;12.43;11.10;;;24.50;81.40;;;;;;5119121;27;20493;-58
2022/06/05 09:28:35;;;;;;;10.48;9.65;;;24.70;81.10;;;;;;5135050;27;20398;-55
2022/06/05 09:31:44;;;;;;;10.82;8.85;;;24.90;80.80;;;;;;5135263;27;20117;-54
2022/06/05 09:34:54;;;;;;;11.55;10.02;;;25.10;79.60;;;;;;5136147;27;20122;-57
2022/06/05 09:37:48;;;;;;;10.48;9.30;;;25.20;79.00;;;;;;5134924;27;20054;-56
2022/06/05 09:40:34;;;;;;;;;;;25.20;79.20;;;;;;5134766;27;20030;-57
2022/06/05 09:43:40;;;;;;;11.07;9.23;;;25.40;78.70;;;;;;5124519;27;19914;-58
2022/06/05 09:46:28;;;;;;;9.60;8.75;;;25.40;78.50;;;;;;5092737;28;20589;-53
2022/06/05 09:49:37;;;;;;;10.30;9.27;;;25.30;78.60;;;;;;5077328;28;20098;-54
2022/06/05 09:52:25;;;;;;;9.43;8.55;;;25.10;78.00;;;;;;5093617;28;20074;-59
2022/06/05 09:55:35;;;;;;;10.07;9.07;;;24.80;79.00;;;;;;5093904;28;20075;-55
2022/06/05 09:58:25;;;;;;;9.35;8.35;;;24.80;78.30;;;;;;5093820;28;20031;-58
2022/06/05 10:01:23;;;;;;;9.20;8.40;;;25.00;78.30;;;;;;5093268;28;20666;-54
2022/06/05 10:04:08;;;;;;;8.90;8.07;;;25.00;78.70;;;;;;5092838;28;20398;-57
2022/06/05 10:07:06;;;;;;;8.68;7.88;;;25.20;78.60;;;;;;5077094;28;20039;-55
2022/06/05 10:09:50;;;;;;;9.75;8.65;;;25.40;78.10;;;;;;5093118;28;20070;-56
2022/06/05 10:12:49;;;;;;;10.75;9.18;;;25.30;77.70;;;;;;5093468;28;20549;-59
2022/06/05 10:15:55;;;;;;;9.07;8.20;;;25.20;77.90;;;;;;5092986;28;20035;-58
2022/06/05 10:18:51;;;;;;;9.18;8.27;;;25.30;77.80;;;;;;5093397;28;20154;-54
2022/06/05 10:21:43;;;;;;;9.90;8.90;;;25.50;77.70;;;;;;5093110;28;20039;-53
2022/06/05 10:24:45;;;;;;;9.10;8.30;;;25.60;77.50;;;;;;5093417;28;20062;-58
2022/06/05 10:27:32;;;;;;;9.68;8.75;;;25.70;77.40;;;;;;5092702;28;20030;-57
2022/06/05 10:30:19;;;;;;;10.13;9.18;;;25.90;77.20;;;;;;5093094;28;20030;-56
2022/06/05 10:33:13;;;;;;;9.23;8.40;;;26.00;76.90;;;;;;5092717;28;20129;-56
2022/06/05 10:36:22;;;;;;;9.13;8.23;;;26.00;76.50;;;;;;5092173;28;20035;-56
2022/06/05 10:39:16;;;;;;;9.73;8.82;;;26.20;76.40;;;;;;5092798;28;20039;-55
2022/06/05 10:42:16;;;;;;;9.43;8.30;;;26.30;76.60;;;;;;5096142;28;20055;-58
2022/06/05 10:45:19;;;;;;;9.52;8.73;;;26.40;76.00;;;;;;5111862;28;20042;-59
2022/06/05 10:48:36;;;;;;;11.02;10.02;;;26.40;75.80;;;;;;5112003;28;20026;-57
2022/06/05 10:51:31;;;;;;;8.75;7.53;;;26.60;75.50;;;;;;5112741;28;20063;-58
2022/06/05 10:54:39;;;;;;;8.93;8.02;;;26.50;74.20;;;;;;5113383;28;20402;-56
2022/06/05 10:57:39;;;;;;;8.85;8.05;;;26.60;73.70;;;;;;5112224;28;20086;-54
2022/06/05 11:00:28;;;;;;;9.25;8.35;;;26.70;74.00;;;;;;5114424;28;20082;-55
2022/06/05 11:03:19;;;;;;;9.55;8.57;;;26.80;73.90;;;;;;5113317;28;20030;-58
2022/06/05 11:06:18;;;;;;;9.98;9.07;;;27.00;73.90;;;;;;5112481;28;20549;-57
2022/06/05 11:09:21;;;;;;;9.32;8.45;;;27.20;74.20;;;;;;5114317;28;20026;-55
2022/06/05 11:16:01;;;;;;;9.95;8.98;;;27.10;74.10;;;;;;5119101;28;20070;-54
2022/06/05 11:18:51;;;;;;;9.57;8.77;;;27.20;74.30;;;;;;5119282;28;20022;-56
2022/06/05 11:21:39;;;;;;;10.10;9.07;;;27.30;74.10;;;;;;5118064;28;20097;-58
2022/06/05 11:24:33;;;;;;;9.57;8.75;;;27.20;73.50;;;;;;5117899;28;20098;-57
2022/06/05 11:27:27;;;;;;;10.82;9.73;;;27.10;73.90;;;;;;5116593;28;20505;-57
2022/06/05 11:30:26;;;;;;;10.38;9.45;;;26.90;74.20;;;;;;5116954;28;20034;-57
2022/06/05 11:33:23;;;;;;;9.55;8.85;;;26.90;74.80;;;;;;5117539;28;20042;-57
2022/06/05 11:36:25;;;;;;;9.85;8.95;;;26.90;74.70;;;;;;5116427;28;20107;-51
2022/06/05 11:39:27;;;;;;;10.32;9.40;;;27.00;75.30;;;;;;5117290;28;20030;-56
2022/06/05 11:42:28;;;;;;;10.77;9.75;;;27.20;75.00;;;;;;5115116;28;20026;-57
2022/06/05 11:45:15;;;;;;;10.80;9.18;;;27.20;74.90;;;;;;5129265;27;20026;-58
2022/06/05 11:48:37;;;;;;;9.85;9.00;;;27.20;74.40;;;;;;5137683;27;20106;-54
2022/06/05 11:51:27;;;;;;;9.82;8.93;;;27.20;74.60;;;;;;5119624;27;20563;-56
2022/06/05 11:54:30;;;;;;;9.35;8.55;;;27.20;74.80;;;;;;5120930;27;20443;-55
2022/06/05 11:57:46;;;;;;;9.68;8.77;;;27.30;74.10;;;;;;5135998;27;20034;-55
2022/06/05 12:00:34;;;;;;;11.32;10.18;;;27.40;74.20;;;;;;5136748;27;20111;-55
2022/06/05 12:03:35;;;;;;;10.43;9.30;;;27.50;73.80;;;;;;5137179;27;20505;-57
2022/06/05 12:06:39;;;;;;;9.57;8.77;;;27.50;73.90;;;;;;5135921;27;20034;-55
2022/06/05 12:09:27;;;;;;;10.27;9.37;;;27.60;74.00;;;;;;5136505;27;20034;-58
2022/06/05 12:12:24;;;;;;;16.15;14.55;;;27.50;73.50;;;;;;5136336;27;20112;-58
2022/06/05 12:15:33;;;;;;;10.95;10.00;;;27.60;74.10;;;;;;5120218;27;20521;-55
2022/06/05 12:18:24;;;;;;;9.50;8.80;;;27.60;74.00;;;;;;5136545;27;20115;-57
2022/06/05 12:21:25;;;;;;;10.82;8.35;;;27.70;73.90;;;;;;5135200;27;20083;-58
2022/06/05 12:24:25;;;;;;;10.35;9.43;;;28.00;73.60;;;;;;5137095;27;20046;-59
2022/06/05 12:27:12;;;;;;;11.70;10.63;;;28.30;72.80;;;;;;5135417;27;20023;-58
2022/06/05 12:30:02;;;;;;;10.38;9.55;;;28.40;72.80;;;;;;5135972;27;20038;-57
2022/06/05 12:33:21;;;;;;;8.90;8.00;;;28.60;72.60;;;;;;5136389;27;20544;-56
2022/06/05 12:36:21;;;;;;;10.10;9.07;;;28.60;71.20;;;;;;5135488;27;20038;-58
2022/06/05 12:39:22;;;;;;;9.90;9.10;;;28.60;72.00;;;;;;5136336;27;20081;-57
2022/06/05 12:42:20;;;;;;;9.13;8.32;;;28.60;71.80;;;;;;5116319;27;20506;-53
2022/06/05 12:45:30;;;;;;;9.70;8.88;;;28.60;71.60;;;;;;5099575;28;20049;-55
2022/06/05 12:48:22;;;;;;;10.60;9.60;;;28.50;71.80;;;;;;5115781;28;20414;-57
2022/06/05 12:51:13;;;;;;;9.15;8.02;;;28.40;71.80;;;;;;5115098;28;20030;-60
2022/06/05 12:54:04;;;;;;;8.07;7.47;;;28.40;71.70;;;;;;5115481;28;20054;-58
2022/06/05 12:56:53;;;;;;;8.48;7.78;;;28.00;71.40;;;;;;5114737;28;20031;-56
2022/06/05 12:59:47;;;;;;;8.70;8.10;;;28.10;71.90;;;;;;5115321;28;20093;-53
2022/06/05 13:02:48;;;;;;;9.05;8.20;;;28.10;72.30;;;;;;5100474;28;20157;-57
2022/06/05 13:05:41;;;;;;;8.43;7.70;;;27.90;71.90;;;;;;5114967;28;20415;-56
2022/06/05 13:08:41;;;;;;;9.35;8.55;;;27.90;72.00;;;;;;5114560;28;20098;-57
2022/06/05 13:11:31;;;;;;;9.40;8.35;;;27.90;72.40;;;;;;5115504;28;20031;-55
2022/06/05 13:14:51;;;;;;;9.50;8.60;;;27.80;72.70;;;;;;5115079;28;20084;-57
2022/06/05 13:18:04;;;;;;;9.02;8.20;;;27.70;72.60;;;;;;5013154;28;20454;-58
2022/06/05 13:21:12;;;;;;;11.63;10.27;;;27.70;72.60;;;;;;5114745;28;20393;-57
2022/06/05 13:24:14;;;;;;;12.40;11.20;;;27.60;72.90;;;;;;5114878;28;20162;-56
2022/06/05 13:27:48;;;;;;;9.60;8.70;;;27.50;73.10;;;;;;5114866;28;20031;-54
2022/06/05 13:31:04;;;;;;;11.23;9.32;;;27.40;73.20;;;;;;5115422;28;20051;-54
2022/06/05 13:34:23;;;;;;;9.30;8.40;;;27.40;73.20;;;;;;5105831;28;20624;-54
2022/06/05 13:37:16;;;;;;;9.10;8.30;;;27.50;74.30;;;;;;5099193;28;20030;-59
2022/06/05 13:40:22;;;;;;;9.60;8.70;;;27.40;73.80;;;;;;5114911;28;20026;-54
2022/06/05 13:43:14;;;;;;;;;;;27.30;73.20;;;;;;5118978;27;20151;-57
2022/06/05 13:46:14;;;;;;;9.45;8.40;;;27.30;73.30;;;;;;5135315;27;19911;-53
2022/06/05 13:49:35;;;;;;;9.13;8.32;;;27.20;73.60;;;;;;5135280;27;20065;-58
2022/06/05 13:52:47;;;;;;;8.82;8.13;;;27.10;73.70;;;;;;5135755;27;20034;-58
2022/06/05 13:56:00;;;;;;;8.80;8.00;;;27.10;73.60;;;;;;5135357;27;20026;-58
2022/06/05 13:59:03;;;;;;;8.63;7.82;;;27.00;73.30;;;;;;5135323;27;20054;-53
2022/06/05 14:02:09;;;;;;;8.15;7.47;;;27.00;73.40;;;;;;5135846;27;20079;-54
2022/06/05 14:05:12;;;;;;;9.05;7.50;;;26.80;73.20;;;;;;5136123;27;20029;-57
2022/06/05 14:08:04;;;;;;;8.20;7.50;;;26.90;73.60;;;;;;5135500;27;20546;-56
2022/06/05 14:10:59;;;;;;;9.02;8.18;;;26.90;73.70;;;;;;5135395;27;20034;-56
2022/06/05 14:13:49;;;;;;;7.97;7.28;;;26.90;73.80;;;;;;5134250;27;20073;-57
2022/06/05 14:16:40;;;;;;;8.15;7.45;;;27.00;73.60;;;;;;5134571;27;20039;-57
2022/06/05 14:19:33;;;;;;;8.40;7.70;;;27.10;73.60;;;;;;5134154;27;20106;-56
2022/06/05 14:22:23;;;;;;;7.60;6.90;;;27.20;73.40;;;;;;5118805;27;20486;-55
2022/06/05 14:25:37;;;;;;;8.35;7.60;;;27.20;73.30;;;;;;5134506;27;20030;-53
2022/06/05 14:28:25;;;;;;;7.53;6.93;;;27.20;73.10;;;;;;5135672;27;20026;-54
2022/06/05 14:31:19;;;;;;;8.27;7.50;;;27.30;73.20;;;;;;5134414;27;20038;-56
2022/06/05 14:34:04;;;;;;;8.02;7.32;;;27.40;72.90;;;;;;5134509;27;20774;-57
2022/06/05 14:36:51;;;;;;;8.65;7.85;;;27.40;72.50;;;;;;5118804;27;20100;-58
2022/06/05 14:39:42;;;;;;;9.40;8.43;;;27.50;72.60;;;;;;5134562;27;20575;-57
2022/06/05 14:42:38;;;;;;;11.68;10.48;;;27.70;73.00;;;;;;5129188;27;20023;-53
2022/06/05 14:45:42;;;;;;;7.57;6.88;;;27.80;72.40;;;;;;5107632;28;20030;-57
2022/06/05 14:48:32;;;;;;;7.43;6.80;;;27.80;70.80;;;;;;5112988;28;20070;-57
2022/06/05 14:51:53;;;;;;;10.23;9.32;;;27.80;70.40;;;;;;5113737;28;20402;-55
2022/06/05 14:58:05;;;;;;;9.48;8.02;;;27.80;70.00;;;;;;5113512;28;20066;-53
2022/06/05 15:01:14;;;;;;;7.70;7.00;;;27.80;70.00;;;;;;5113511;28;20532;-58
2022/06/05 15:04:09;;;;;;;8.07;7.38;;;27.80;70.20;;;;;;5113869;28;20074;-53
2022/06/05 15:07:04;;;;;;;8.48;7.20;;;27.80;70.30;;;;;;5113213;28;20034;-54
2022/06/05 15:10:17;;;;;;;9.15;7.75;;;27.70;70.30;;;;;;5114170;28;20101;-55